Time;durP1;ratioP1;P1;durP2;ratioP2;P2;SDS_P1;SDS_P2;PMS_P1;PMS_P2;Temp;Humidity;BMP_temperature;BMP_pressure;BME280_temperature;BME280_humidity;BME280_pressure;Samples;Min_cycle;Max_cycle;Signal;HPM_P1;HPM_P2
2022/06/07 00:02:00;;;;;;;17.20;11.27;;;11.90;99.90;;;;;;4904902;29;20051;-91
2022/06/07 00:04:26;;;;;;;20.05;12.25;;;11.90;99.90;;;;;;4908224;29;20496;-92
2022/06/07 00:06:54;;;;;;;18.75;12.07;;;11.90;99.90;;;;;;4912174;29;20047;-92
2022/06/07 00:09:20;;;;;;;20.52;12.05;;;11.90;99.90;;;;;;4925317;29;20044;-92
2022/06/07 00:11:46;;;;;;;20.27;11.57;;;10.20;99.90;;;;;;4922512;29;20058;-92
2022/06/07 00:14:11;;;;;;;19.83;11.65;;;11.90;99.90;;;;;;4921127;29;20067;-91
2022/06/07 00:16:37;;;;;;;24.23;12.82;;;11.80;99.90;;;;;;4901405;29;20094;-91
2022/06/07 00:19:03;;;;;;;17.92;12.20;;;11.90;99.90;;;;;;4907961;29;20115;-92
2022/06/07 00:21:29;;;;;;;15.98;11.65;;;12.10;99.90;;;;;;4905843;29;20460;-91
2022/06/07 00:23:57;;;;;;;23.00;12.65;;;12.00;99.90;;;;;;4890240;29;20047;-93
2022/06/07 00:26:23;;;;;;;19.98;12.88;;;12.00;99.90;;;;;;4904791;29;20487;-93
2022/06/07 00:28:48;;;;;;;18.33;13.35;;;11.90;99.90;;;;;;4889604;29;20115;-92
2022/06/07 00:31:14;;;;;;;22.00;13.40;;;12.00;99.90;;;;;;4889412;29;20388;-92
2022/06/07 00:33:43;;;;;;;18.38;12.90;;;12.00;99.90;;;;;;4889559;29;20452;-91
2022/06/07 00:36:09;;;;;;;35.60;14.73;;;12.00;99.90;;;;;;4920426;29;20052;-92
2022/06/07 00:38:37;;;;;;;24.23;14.63;;;12.10;99.90;;;;;;4904547;29;20134;-93
2022/06/07 00:41:03;;;;;;;19.20;13.75;;;11.80;99.90;;;;;;4904136;29;20102;-90
2022/06/07 00:43:31;;;;;;;26.85;16.83;;;12.20;99.90;;;;;;4903567;29;20492;-92
2022/06/07 00:45:59;;;;;;;26.05;16.20;;;12.20;99.90;;;;;;4919722;29;20492;-91
2022/06/07 00:48:25;;;;;;;23.02;15.90;;;12.20;99.90;;;;;;4887951;29;20058;-91
2022/06/07 00:51:00;;;;;;;26.70;16.80;;;12.10;99.90;;;;;;4888098;29;20051;-91
2022/06/07 00:53:31;;;;;;;23.58;16.88;;;12.30;99.90;;;;;;4903302;29;20044;-93
2022/06/07 00:55:57;;;;;;;25.45;16.60;;;12.30;99.90;;;;;;4903129;29;20718;-92
2022/06/07 00:58:25;;;;;;;30.02;18.05;;;12.30;99.90;;;;;;4887645;29;20051;-93
2022/06/07 01:00:54;;;;;;;27.88;17.88;;;12.40;99.90;;;;;;4903995;29;20039;-92
2022/06/07 01:03:20;;;;;;;28.20;18.35;;;12.20;99.90;;;;;;4902706;29;20044;-90
2022/06/07 01:05:50;;;;;;;28.98;19.38;;;12.30;99.90;;;;;;4903285;29;20476;-91
2022/06/07 01:11:01;;;;;;;24.88;18.50;;;12.40;99.90;;;;;;4906185;29;20083;-91
2022/06/07 01:13:32;;;;;;;32.17;17.02;;;12.40;99.90;;;;;;4887230;29;20130;-91
2022/06/07 01:16:04;;;;;;;28.08;17.98;;;12.40;99.90;;;;;;4887659;29;20059;-91
2022/06/07 01:18:31;;;;;;;22.27;17.02;;;12.30;99.90;;;;;;4886773;29;20440;-92
2022/06/07 01:21:21;;;;;;;24.98;17.75;;;12.50;99.90;;;;;;4887402;29;20087;-92
2022/06/07 01:23:47;;;;;;;26.25;17.38;;;12.40;99.90;;;;;;4902684;29;20143;-92
2022/06/07 01:26:13;;;;;;;25.95;19.10;;;12.40;99.90;;;;;;4887123;29;20400;-93
2022/06/07 01:28:39;;;;;;;27.00;19.17;;;11.70;99.90;;;;;;4887134;29;20055;-93
2022/06/07 01:31:05;;;;;;;27.40;17.98;;;12.30;99.90;;;;;;4887187;29;20125;-92
2022/06/07 01:33:33;;;;;;;22.10;17.60;;;12.40;99.90;;;;;;4889097;29;20055;-92
2022/06/07 01:36:07;;;;;;;25.58;17.75;;;12.40;99.90;;;;;;4888468;29;20054;-93
2022/06/07 01:38:34;;;;;;;27.08;18.27;;;12.50;99.90;;;;;;4903786;29;20060;-90
2022/06/07 01:43:44;;;;;;;;;;;12.50;99.90;;;;;;4905591;29;20059;-93
2022/06/07 01:46:12;;;;;;;24.48;17.55;;;12.50;99.90;;;;;;4902747;29;20526;-91
2022/06/07 01:48:38;;;;;;;21.08;16.10;;;12.50;99.90;;;;;;4887139;29;20179;-92
2022/06/07 01:51:07;;;;;;;24.85;16.92;;;12.60;99.90;;;;;;4887447;29;20551;-91
2022/06/07 01:53:34;;;;;;;21.55;15.60;;;12.50;99.90;;;;;;4887656;29;20059;-91
2022/06/07 01:56:13;;;;;;;19.42;15.85;;;12.50;99.90;;;;;;4903171;29;20055;-91
2022/06/07 01:58:42;;;;;;;23.23;16.75;;;12.70;99.90;;;;;;4886944;29;20059;-92
2022/06/07 02:01:09;;;;;;;21.45;16.90;;;12.60;99.90;;;;;;4902367;29;20079;-91
2022/06/07 02:03:35;;;;;;;20.92;15.50;;;12.60;99.90;;;;;;4901260;29;20060;-90
2022/06/07 02:06:05;;;;;;;26.63;15.85;;;12.20;99.90;;;;;;4902003;29;20071;-92
2022/06/07 02:08:31;;;;;;;20.38;13.73;;;12.50;99.90;;;;;;4885908;29;20063;-91
2022/06/07 02:11:05;;;;;;;22.70;15.82;;;12.70;99.90;;;;;;4902231;29;20058;-92
2022/06/07 02:13:34;;;;;;;21.95;15.00;;;12.50;99.90;;;;;;4887792;29;20519;-91
2022/06/07 02:16:00;;;;;;;18.88;14.57;;;12.60;99.90;;;;;;4902144;29;20048;-92
2022/06/07 02:18:28;;;;;;;20.40;14.82;;;12.50;99.90;;;;;;4900007;29;20051;-89
2022/06/07 02:20:56;;;;;;;19.73;14.85;;;12.60;99.90;;;;;;4918031;29;20150;-91
2022/06/07 02:23:23;;;;;;;18.83;14.70;;;11.70;99.90;;;;;;4915235;29;20056;-91
2022/06/07 02:25:50;;;;;;;22.33;15.57;;;12.60;99.90;;;;;;4892107;29;20067;-91
2022/06/07 02:28:16;;;;;;;19.25;14.18;;;12.60;99.90;;;;;;4889417;29;20232;-91
2022/06/07 02:30:44;;;;;;;17.58;14.18;;;12.60;99.90;;;;;;4888640;29;20175;-91
2022/06/07 02:33:13;;;;;;;20.45;14.23;;;12.70;99.90;;;;;;4904446;29;20055;-93
2022/06/07 02:35:39;;;;;;;22.45;14.73;;;12.70;99.90;;;;;;4901934;29;20047;-89
2022/06/07 02:38:07;;;;;;;22.40;14.90;;;13.30;99.90;;;;;;4879326;29;20114;-88
2022/06/07 02:40:33;;;;;;;21.80;15.77;;;12.70;99.90;;;;;;4895602;29;20488;-88
2022/06/07 02:42:59;;;;;;;19.63;15.15;;;12.70;99.90;;;;;;4903454;29;20058;-89
2022/06/07 02:45:24;;;;;;;19.75;15.68;;;12.80;99.90;;;;;;4894064;29;20051;-90
2022/06/07 02:47:50;;;;;;;20.02;15.68;;;12.70;99.90;;;;;;4911045;29;20040;-89
2022/06/07 02:50:16;;;;;;;22.95;15.02;;;12.70;99.90;;;;;;4910988;29;20050;-89
2022/06/07 02:52:42;;;;;;;22.92;15.20;;;12.70;99.90;;;;;;4911781;29;20543;-88
2022/06/07 02:55:08;;;;;;;22.77;15.65;;;12.70;99.90;;;;;;4905028;29;20543;-92
2022/06/07 02:57:34;;;;;;;19.27;15.02;;;12.70;99.90;;;;;;4886370;29;20138;-92
2022/06/07 02:59:59;;;;;;;25.55;16.42;;;12.70;99.90;;;;;;4886306;29;20150;-91
2022/06/07 03:02:25;;;;;;;22.42;15.90;;;12.90;99.90;;;;;;4886110;29;20059;-92
2022/06/07 03:04:51;;;;;;;19.63;16.23;;;12.80;99.90;;;;;;4885870;29;20499;-90
2022/06/07 03:07:16;;;;;;;21.55;15.73;;;13.30;99.90;;;;;;4901773;29;20055;-92
2022/06/07 03:09:42;;;;;;;22.05;16.40;;;12.60;99.90;;;;;;4901326;29;20138;-91
2022/06/07 03:12:08;;;;;;;26.08;16.35;;;12.70;99.90;;;;;;4885953;29;20059;-89
2022/06/07 03:14:33;;;;;;;20.83;15.95;;;12.70;99.90;;;;;;4916793;29;20051;-91
2022/06/07 03:17:04;;;;;;;22.38;15.35;;;12.70;99.90;;;;;;4886055;29;20098;-92
2022/06/07 03:19:30;;;;;;;23.25;16.10;;;12.70;99.90;;;;;;4903667;29;20047;-91
2022/06/07 03:21:55;;;;;;;23.05;14.82;;;12.70;99.90;;;;;;4889687;29;20052;-92
2022/06/07 03:24:21;;;;;;;21.90;16.45;;;13.00;99.90;;;;;;4905021;29;20134;-91
2022/06/07 03:26:47;;;;;;;22.20;16.08;;;12.70;99.90;;;;;;4889218;29;20056;-90
2022/06/07 03:29:16;;;;;;;23.10;15.27;;;12.80;99.90;;;;;;4905072;29;20059;-91
2022/06/07 03:31:41;;;;;;;23.02;15.77;;;12.80;99.90;;;;;;4889351;29;20048;-91
2022/06/07 03:34:07;;;;;;;22.15;15.23;;;12.80;99.90;;;;;;4905281;29;20078;-91
2022/06/07 03:36:33;;;;;;;26.50;16.15;;;12.80;99.90;;;;;;4904482;29;20142;-91
2022/06/07 03:39:00;;;;;;;24.65;14.45;;;11.80;99.90;;;;;;4889445;29;20066;-90
2022/06/07 03:41:26;;;;;;;24.60;15.40;;;12.80;99.90;;;;;;4906306;29;20203;-91
2022/06/07 03:43:52;;;;;;;23.17;15.23;;;12.80;99.90;;;;;;4905033;29;20055;-92
2022/06/07 03:46:22;;;;;;;20.17;14.63;;;12.80;99.90;;;;;;4889732;29;20048;-91
2022/06/07 03:48:56;;;;;;;22.15;15.60;;;12.80;99.90;;;;;;4889905;29;20349;-91
2022/06/07 03:51:23;;;;;;;19.70;13.15;;;12.80;99.90;;;;;;4889291;29;20134;-91
2022/06/07 03:53:49;;;;;;;21.85;14.90;;;12.80;99.90;;;;;;4888643;29;20059;-90
2022/06/07 03:56:15;;;;;;;20.05;15.30;;;12.80;99.90;;;;;;4904318;29;20047;-91
2022/06/07 03:58:42;;;;;;;20.98;15.27;;;12.80;99.90;;;;;;4888416;29;20568;-91
2022/06/07 04:01:09;;;;;;;20.38;15.13;;;12.70;99.90;;;;;;4904187;29;20048;-90
2022/06/07 04:03:35;;;;;;;22.50;15.45;;;12.90;99.90;;;;;;4903770;29;20504;-91
2022/06/07 04:06:00;;;;;;;20.27;15.27;;;13.20;99.90;;;;;;4904128;29;20058;-92
2022/06/07 04:08:26;;;;;;;23.08;16.63;;;12.80;99.90;;;;;;4919363;29;20385;-89
2022/06/07 04:11:00;;;;;;;25.92;16.48;;;12.80;99.90;;;;;;4919638;29;20096;-90
2022/06/07 04:13:30;;;;;;;21.73;15.13;;;12.90;99.90;;;;;;4904699;29;20073;-89
2022/06/07 04:15:55;;;;;;;26.35;17.27;;;12.90;99.90;;;;;;4904810;29;20476;-90
2022/06/07 04:18:24;;;;;;;20.45;14.82;;;12.90;99.90;;;;;;4904230;29;20066;-91
2022/06/07 04:20:58;;;;;;;23.88;15.82;;;12.90;99.90;;;;;;4904010;29;20048;-89
2022/06/07 04:23:24;;;;;;;20.77;14.63;;;12.80;99.90;;;;;;4904890;29;20044;-92
2022/06/07 04:25:49;;;;;;;22.15;16.05;;;12.80;99.90;;;;;;4904368;29;20444;-88
2022/06/07 04:28:15;;;;;;;21.55;15.43;;;12.90;99.90;;;;;;4904710;29;20084;-91
2022/06/07 04:30:48;;;;;;;24.20;16.75;;;12.90;99.90;;;;;;4903849;29;20040;-91
2022/06/07 04:33:17;;;;;;;21.58;15.40;;;12.90;99.90;;;;;;4888466;29;20079;-91
2022/06/07 04:35:44;;;;;;;19.98;15.00;;;12.90;99.90;;;;;;4903876;29;20062;-90
2022/06/07 04:38:10;;;;;;;23.85;16.33;;;12.90;99.90;;;;;;4902977;29;20063;-89
2022/06/07 04:40:37;;;;;;;23.25;16.10;;;12.90;99.90;;;;;;4903453;29;20123;-90
2022/06/07 04:43:04;;;;;;;22.48;15.27;;;12.90;99.90;;;;;;4903230;29;20056;-89
2022/06/07 04:45:31;;;;;;;19.88;13.98;;;12.90;99.90;;;;;;4903514;29;20062;-89
2022/06/07 04:47:59;;;;;;;22.33;16.60;;;12.90;99.90;;;;;;4902961;29;20637;-93
2022/06/07 04:50:25;;;;;;;23.35;15.80;;;12.90;99.90;;;;;;4903724;29;20044;-90
2022/06/07 04:52:51;;;;;;;20.83;15.73;;;12.90;99.90;;;;;;4918545;29;20048;-90
2022/06/07 04:55:16;;;;;;;21.25;16.52;;;12.90;99.90;;;;;;4903120;29;20385;-90
2022/06/07 04:57:42;;;;;;;25.20;17.02;;;12.90;99.90;;;;;;4902791;29;20099;-90
2022/06/07 05:00:13;;;;;;;22.25;15.18;;;12.90;99.90;;;;;;4903205;29;20055;-90
2022/06/07 05:02:39;;;;;;;23.10;16.80;;;12.90;99.90;;;;;;4904085;29;20099;-90
2022/06/07 05:05:05;;;;;;;24.27;17.20;;;12.90;99.90;;;;;;4903018;29;20047;-90
2022/06/07 05:07:31;;;;;;;21.55;15.65;;;12.80;99.90;;;;;;4887365;29;20138;-89
2022/06/07 05:09:57;;;;;;;28.48;16.70;;;14.00;99.90;;;;;;4886972;29;20261;-90
2022/06/07 05:12:22;;;;;;;24.35;17.23;;;12.70;99.90;;;;;;4887354;29;20107;-87
2022/06/07 05:14:49;;;;;;;23.77;17.15;;;12.80;99.90;;;;;;4918332;29;20055;-91
2022/06/07 05:17:15;;;;;;;25.05;17.33;;;12.80;99.90;;;;;;4903083;29;20055;-90
2022/06/07 05:20:12;;;;;;;25.45;16.83;;;12.80;99.90;;;;;;4892625;29;20044;-92
2022/06/07 05:22:38;;;;;;;27.73;17.00;;;12.90;99.90;;;;;;4903756;29;20502;-91
2022/06/07 05:25:06;;;;;;;23.08;16.25;;;12.70;99.90;;;;;;4891228;29;20044;-95
2022/06/07 05:27:38;;;;;;;27.23;17.58;;;12.70;99.90;;;;;;4907345;29;20058;-90
2022/06/07 05:30:05;;;;;;;23.85;16.95;;;12.90;99.90;;;;;;4902193;29;20085;-90
2022/06/07 05:32:30;;;;;;;23.40;16.85;;;12.70;99.90;;;;;;4895990;29;20122;-90
2022/06/07 05:34:56;;;;;;;22.95;17.98;;;11.40;99.90;;;;;;4885143;29;20151;-92
2022/06/07 05:37:22;;;;;;;25.00;17.38;;;12.90;99.90;;;;;;4899343;29;20609;-92
2022/06/07 05:39:48;;;;;;;24.85;17.60;;;12.80;99.90;;;;;;4914223;29;20047;-93
2022/06/07 05:42:15;;;;;;;26.42;17.75;;;12.80;99.90;;;;;;4919372;29;20174;-92
2022/06/07 05:44:44;;;;;;;26.80;16.85;;;12.90;99.90;;;;;;4923303;29;20051;-96
2022/06/07 05:47:26;;;;;;;26.58;18.42;;;12.90;99.90;;;;;;4928120;29;20054;-94
2022/06/07 05:49:52;;;;;;;25.73;17.40;;;12.80;99.90;;;;;;4919060;29;20046;-90
2022/06/07 05:52:20;;;;;;;27.23;18.90;;;12.90;99.90;;;;;;4920683;29;20075;-88
2022/06/07 05:54:49;;;;;;;27.30;18.63;;;11.90;99.90;;;;;;4916462;29;20102;-95
2022/06/07 05:57:15;;;;;;;26.33;18.98;;;12.80;99.90;;;;;;4913979;29;20050;-95
2022/06/07 05:59:41;;;;;;;26.85;19.08;;;12.50;99.90;;;;;;4898873;29;20047;-96
2022/06/07 06:02:08;;;;;;;21.92;15.57;;;12.50;99.90;;;;;;4896591;29;20447;-96
2022/06/07 06:04:37;;;;;;;23.35;16.35;;;12.40;99.90;;;;;;4897989;29;20458;-96
2022/06/07 06:07:05;;;;;;;18.65;12.88;;;12.50;99.90;;;;;;4903569;29;20059;-96
2022/06/07 06:12:22;;;;;;;15.38;11.93;;;14.30;99.90;;;;;;4919776;29;20051;-95
2022/06/07 06:14:48;;;;;;;15.20;10.40;;;11.80;99.90;;;;;;4911119;29;20077;-92
2022/06/07 06:17:17;;;;;;;8.75;6.80;;;12.20;99.90;;;;;;4890976;29;20070;-95
2022/06/07 06:19:46;;;;;;;9.95;6.55;;;14.00;99.90;;;;;;4885144;29;20079;-87
2022/06/07 06:22:11;;;;;;;12.20;6.95;;;11.90;99.90;;;;;;4915005;29;20043;-89
2022/06/07 06:24:37;;;;;;;8.52;6.97;;;11.70;99.90;;;;;;4884452;29;20042;-90
2022/06/07 06:27:03;;;;;;;8.70;6.78;;;12.00;99.90;;;;;;4882287;29;20055;-90
2022/06/07 06:29:29;;;;;;;11.70;7.28;;;11.80;99.90;;;;;;4896798;29;20047;-92
2022/06/07 06:31:57;;;;;;;12.57;8.15;;;11.80;99.90;;;;;;4894159;29;20043;-88
2022/06/07 06:34:26;;;;;;;12.10;9.18;;;11.80;99.90;;;;;;4895659;29;20078;-90
2022/06/07 06:36:52;;;;;;;14.68;9.13;;;11.80;99.90;;;;;;4878058;29;20060;-89
2022/06/07 06:39:20;;;;;;;12.55;8.45;;;11.90;99.90;;;;;;4876599;29;20098;-90
2022/06/07 06:41:47;;;;;;;16.63;9.68;;;10.70;99.90;;;;;;4911699;29;20047;-91
2022/06/07 06:44:20;;;;;;;15.23;10.27;;;11.90;99.90;;;;;;4875440;29;20083;-92
2022/06/07 06:46:47;;;;;;;19.10;11.23;;;11.80;99.90;;;;;;4877642;29;20496;-89
2022/06/07 06:49:20;;;;;;;21.73;11.38;;;11.90;99.90;;;;;;4906800;29;20440;-90
2022/06/07 06:51:47;;;;;;;14.00;10.63;;;12.20;99.90;;;;;;4880027;29;20056;-90
2022/06/07 06:54:16;;;;;;;13.48;9.20;;;12.10;99.90;;;;;;4902752;29;20392;-90
2022/06/07 06:57:03;;;;;;;13.13;8.40;;;11.90;99.90;;;;;;4900096;29;20052;-95
2022/06/07 06:59:32;;;;;;;14.88;8.00;;;11.80;99.90;;;;;;4904183;29;20549;-90
2022/06/07 07:02:01;;;;;;;11.40;8.32;;;11.80;99.90;;;;;;4886022;29;20168;-94
2022/06/07 07:04:37;;;;;;;13.30;9.07;;;14.20;99.90;;;;;;4901660;29;20090;-93
2022/06/07 07:07:03;;;;;;;14.32;8.10;;;11.90;99.90;;;;;;4885487;29;20512;-95
2022/06/07 07:09:29;;;;;;;15.95;9.15;;;12.10;99.90;;;;;;4903644;29;20048;-94
2022/06/07 07:12:00;;;;;;;20.77;10.10;;;12.80;99.90;;;;;;4886486;29;20131;-92
2022/06/07 07:14:28;;;;;;;12.90;9.15;;;12.10;99.90;;;;;;4870470;29;20056;-90
2022/06/07 07:17:06;;;;;;;12.30;9.80;;;12.20;99.90;;;;;;4885656;29;20056;-94
2022/06/07 07:19:48;;;;;;;15.98;10.20;;;12.50;99.90;;;;;;4885353;29;20062;-92
2022/06/07 07:22:30;;;;;;;;;;;;;;;;;;;;;
2022/06/07 07:25:30;;;;;;;;;;;;;;;;;;;;;
2022/06/07 07:28:10;;;;;;;15.85;9.50;;;12.50;99.90;;;;;;4915433;29;20052;-94
2022/06/07 07:30:37;;;;;;;14.80;8.90;;;12.30;99.90;;;;;;4874693;29;20087;-93
2022/06/07 07:33:10;;;;;;;16.10;9.85;;;12.60;99.90;;;;;;4892214;29;20546;-94
2022/06/07 07:35:36;;;;;;;18.75;9.15;;;12.70;99.90;;;;;;4886282;29;20107;-94
2022/06/07 07:38:02;;;;;;;16.13;9.80;;;12.50;99.90;;;;;;4884757;29;20148;-90
2022/06/07 07:40:30;;;;;;;15.88;8.88;;;12.60;99.90;;;;;;4882825;29;20079;-91
2022/06/07 07:42:59;;;;;;;20.55;10.30;;;12.70;99.90;;;;;;4884848;29;20413;-91
2022/06/07 07:45:28;;;;;;;15.10;9.25;;;12.60;99.90;;;;;;4898292;29;20048;-95
2022/06/07 07:47:54;;;;;;;14.38;9.57;;;12.60;99.90;;;;;;4883885;29;20040;-89
2022/06/07 07:50:19;;;;;;;14.55;9.20;;;12.50;99.90;;;;;;4914681;29;20107;-89
2022/06/07 07:52:45;;;;;;;16.25;9.70;;;12.80;99.90;;;;;;4898743;29;20048;-90
2022/06/07 07:55:12;;;;;;;14.00;8.82;;;12.60;99.90;;;;;;4902981;29;20048;-92
2022/06/07 07:57:40;;;;;;;18.13;10.07;;;12.70;99.90;;;;;;4888457;29;20063;-91
2022/06/07 08:00:07;;;;;;;15.85;9.10;;;12.60;99.90;;;;;;4899752;29;20059;-87
2022/06/07 08:02:33;;;;;;;17.65;8.73;;;12.60;99.90;;;;;;4898389;29;20111;-90
2022/06/07 08:04:58;;;;;;;11.82;7.63;;;12.60;99.90;;;;;;4911168;29;20051;-90
2022/06/07 08:07:27;;;;;;;14.32;7.30;;;12.60;99.90;;;;;;4887596;29;20139;-94
2022/06/07 08:09:53;;;;;;;12.35;7.20;;;12.90;99.90;;;;;;4888872;29;20140;-93
2022/06/07 08:12:22;;;;;;;11.98;6.88;;;12.90;99.90;;;;;;4897472;29;20087;-92
2022/06/07 08:14:47;;;;;;;13.07;6.93;;;13.00;99.90;;;;;;4891922;29;20453;-94
2022/06/07 08:17:19;;;;;;;10.82;6.65;;;12.70;99.90;;;;;;4892833;29;20058;-94
2022/06/07 08:19:47;;;;;;;12.57;6.28;;;12.70;99.90;;;;;;4893999;29;20404;-94
2022/06/07 08:22:13;;;;;;;9.57;5.78;;;12.70;99.90;;;;;;4909131;29;20064;-93
2022/06/07 08:24:39;;;;;;;11.65;5.72;;;12.80;99.90;;;;;;4895504;29;20530;-92
2022/06/07 08:27:09;;;;;;;12.85;5.55;;;11.60;99.90;;;;;;4893539;29;20091;-93
2022/06/07 08:29:36;;;;;;;10.93;5.10;;;13.70;99.90;;;;;;4915827;29;20048;-93
2022/06/07 08:32:05;;;;;;;10.70;5.60;;;12.80;99.90;;;;;;4888783;29;20106;-92
2022/06/07 08:37:37;;;;;;;9.70;5.90;;;13.00;99.90;;;;;;4892385;29;20064;-91
2022/06/07 08:40:10;;;;;;;15.50;6.78;;;13.00;99.90;;;;;;4905148;29;20052;-91
2022/06/07 08:42:38;;;;;;;14.97;6.60;;;12.90;99.90;;;;;;4902407;29;20478;-91
2022/06/07 08:45:05;;;;;;;12.10;6.75;;;12.90;99.90;;;;;;4897030;29;20082;-91
2022/06/07 08:47:56;;;;;;;13.35;6.82;;;12.90;99.90;;;;;;4905131;29;20469;-91
2022/06/07 08:50:24;;;;;;;14.65;7.07;;;13.00;99.90;;;;;;4890606;29;20142;-92
2022/06/07 08:52:57;;;;;;;12.40;7.63;;;13.00;99.90;;;;;;4894611;29;20107;-91
2022/06/07 08:55:27;;;;;;;12.00;7.05;;;13.00;99.90;;;;;;4900260;29;20134;-91
2022/06/07 08:58:17;;;;;;;15.32;7.65;;;13.10;99.90;;;;;;4885046;29;20107;-91
2022/06/07 09:00:51;;;;;;;14.10;7.95;;;13.00;99.90;;;;;;4900957;29;20091;-92
2022/06/07 09:03:32;;;;;;;12.68;6.97;;;13.00;99.90;;;;;;4888926;29;20036;-92
2022/06/07 09:06:00;;;;;;;17.48;9.10;;;13.10;99.90;;;;;;4917201;29;20047;-89
2022/06/07 09:08:42;;;;;;;12.57;6.97;;;13.00;99.90;;;;;;4899173;29;20039;-91
2022/06/07 09:14:00;;;;;;;15.73;8.57;;;12.80;99.90;;;;;;4921508;29;20087;-90
2022/06/07 09:16:29;;;;;;;12.18;8.02;;;12.90;99.90;;;;;;4906261;29;20080;-91
2022/06/07 09:18:54;;;;;;;20.17;8.88;;;12.70;99.90;;;;;;4899213;29;20048;-91
2022/06/07 09:21:46;;;;;;;13.68;9.40;;;12.80;99.90;;;;;;4902513;29;20044;-91
2022/06/07 09:24:36;;;;;;;16.95;10.05;;;14.00;99.90;;;;;;4901505;29;20048;-92
2022/06/07 09:27:19;;;;;;;18.63;9.55;;;12.10;99.90;;;;;;4894006;29;20067;-93
2022/06/07 09:29:56;;;;;;;11.35;8.18;;;13.00;99.90;;;;;;4911459;29;20477;-91
2022/06/07 09:32:35;;;;;;;;;;;;;;;;;;;;;
2022/06/07 09:35:08;;;;;;;12.82;9.38;;;12.90;99.90;;;;;;4908147;29;20047;-92
2022/06/07 09:38:14;;;;;;;12.77;8.88;;;12.90;99.90;;;;;;4908826;29;20201;-93
2022/06/07 09:41:02;;;;;;;12.85;7.95;;;13.20;99.90;;;;;;4902796;29;20052;-93
2022/06/07 09:43:42;;;;;;;15.95;7.55;;;13.20;99.90;;;;;;4880656;29;20056;-91
2022/06/07 09:46:27;;;;;;;9.50;4.43;;;13.00;99.90;;;;;;4930119;29;20060;-93
2022/06/07 09:48:55;;;;;;;7.53;3.40;;;11.80;99.90;;;;;;4900493;29;20142;-92
2022/06/07 09:51:28;;;;;;;6.72;2.70;;;13.50;99.90;;;;;;4892397;29;20062;-93
2022/06/07 09:54:05;;;;;;;4.97;2.38;;;13.20;99.90;;;;;;4885907;29;20131;-96
2022/06/07 09:57:13;;;;;;;4.90;2.13;;;13.40;99.90;;;;;;4890528;29;20052;-96
2022/06/07 09:59:57;;;;;;;4.22;1.95;;;13.10;99.90;;;;;;4891901;29;20056;-93
2022/06/07 10:02:23;;;;;;;4.47;2.25;;;13.50;99.90;;;;;;4907867;29;20500;-89
2022/06/07 10:05:05;;;;;;;4.63;2.50;;;13.40;99.90;;;;;;4924213;29;20179;-93
2022/06/07 10:08:18;;;;;;;;;;;;;;;;;;;;;
2022/06/07 10:11:12;;;;;;;5.07;1.90;;;13.50;99.90;;;;;;4925007;29;20075;-94
2022/06/07 10:13:53;;;;;;;5.95;1.85;;;13.50;99.90;;;;;;4915554;29;20048;-93
2022/06/07 10:16:39;;;;;;;3.25;1.55;;;13.10;99.90;;;;;;4900591;29;20072;-93
2022/06/07 10:19:20;;;;;;;6.78;1.60;;;13.80;99.90;;;;;;4920621;29;20048;-91
2022/06/07 10:22:07;;;;;;;4.90;1.60;;;13.80;99.90;;;;;;4915982;29;20056;-91
2022/06/07 10:28:06;;;;;;;5.72;1.88;;;13.60;99.90;;;;;;4897587;29;20425;-95
2022/06/07 10:30:39;;;;;;;4.47;1.83;;;13.80;99.90;;;;;;4919628;29;20140;-94
2022/06/07 10:33:36;;;;;;;6.10;1.70;;;13.80;99.90;;;;;;4903419;29;20507;-90
2022/06/07 10:36:35;;;;;;;4.03;1.83;;;13.90;99.90;;;;;;4913107;29;20059;-88
2022/06/07 10:39:26;;;;;;;4.03;1.58;;;13.80;99.90;;;;;;4906529;29;20056;-88
2022/06/07 10:42:22;;;;;;;4.15;1.60;;;13.80;99.90;;;;;;4914554;29;20118;-89
2022/06/07 10:45:04;;;;;;;4.82;1.35;;;14.00;99.90;;;;;;4911660;29;20135;-88
2022/06/07 10:47:36;;;;;;;5.00;1.83;;;13.80;99.90;;;;;;4913928;29;20054;-90
2022/06/07 10:50:14;;;;;;;5.00;2.13;;;14.00;99.90;;;;;;4902799;29;20100;-90
2022/06/07 10:52:59;;;;;;;4.70;1.60;;;14.00;99.90;;;;;;4920263;29;20062;-91
2022/06/07 10:55:40;;;;;;;3.72;1.60;;;14.20;99.90;;;;;;4922160;29;20443;-95
2022/06/07 10:58:28;;;;;;;6.65;1.92;;;14.10;99.90;;;;;;4910835;29;20122;-91
2022/06/07 11:01:22;;;;;;;5.13;1.60;;;13.90;99.90;;;;;;4912005;29;20150;-92
2022/06/07 11:09:19;;;;;;;5.65;1.80;;;13.90;99.90;;;;;;4911118;29;20083;-94
2022/06/07 11:10:20;;;;;;;5.88;2.00;;;13.90;99.90;;;;;;4906081;29;20415;-93
2022/06/07 11:12:54;;;;;;;;;;;13.80;99.90;;;;;;4900042;29;20059;-95
2022/06/07 11:15:42;;;;;;;6.88;2.00;;;14.00;99.90;;;;;;4915637;29;19933;-95
2022/06/07 11:18:10;;;;;;;7.60;2.13;;;13.70;99.90;;;;;;4924478;29;20103;-96
2022/06/07 11:21:10;;;;;;;5.68;2.28;;;14.30;99.90;;;;;;4901517;29;20050;-96
2022/06/07 11:24:05;;;;;;;5.00;1.92;;;14.30;99.90;;;;;;4903692;29;20100;-96
2022/06/07 11:27:02;;;;;;;5.15;2.05;;;14.50;99.90;;;;;;4911346;29;20468;-96
2022/06/07 11:29:34;;;;;;;4.30;1.70;;;14.50;99.90;;;;;;4892090;29;20111;-95
2022/06/07 11:32:03;;;;;;;4.13;1.80;;;14.60;99.90;;;;;;4897285;29;20130;-94
2022/06/07 11:34:35;;;;;;;3.25;1.50;;;14.70;99.90;;;;;;4916159;29;20480;-95
2022/06/07 11:37:19;;;;;;;3.65;1.70;;;14.50;99.90;;;;;;4909494;29;20060;-96
2022/06/07 11:39:57;;;;;;;4.65;1.55;;;13.70;99.90;;;;;;4924081;29;20048;-95
2022/06/07 11:42:33;;;;;;;5.40;1.67;;;14.60;99.90;;;;;;4920347;29;20052;-96
2022/06/07 11:45:13;;;;;;;;;;;;;;;;;;;;;
2022/06/07 11:47:45;;;;;;;5.40;1.63;;;14.90;99.90;;;;;;4931720;29;20048;-95
2022/06/07 11:50:47;;;;;;;6.63;1.90;;;14.90;99.90;;;;;;4916911;29;20047;-96
2022/06/07 11:53:34;;;;;;;5.80;1.55;;;15.20;99.90;;;;;;4927587;29;20040;-96
2022/06/07 11:56:51;;;;;;;;;;;;;;;;;;;;;
2022/06/07 11:59:20;;;;;;;5.65;1.77;;;15.40;99.90;;;;;;4901812;29;20078;-96
2022/06/07 12:01:48;;;;;;;8.25;2.13;;;15.40;99.90;;;;;;4930506;29;20052;-93
2022/06/07 12:04:43;;;;;;;9.05;2.15;;;15.60;99.90;;;;;;4888114;29;20048;-94
2022/06/07 12:07:29;;;;;;;6.32;1.80;;;15.60;99.90;;;;;;4918340;29;20048;-94
2022/06/07 12:09:57;;;;;;;4.57;1.38;;;15.50;99.90;;;;;;4922684;29;20116;-93
2022/06/07 12:12:31;;;;;;;3.92;1.77;;;15.80;99.90;;;;;;4910848;29;20048;-92
2022/06/07 12:15:14;;;;;;;6.45;1.67;;;15.50;99.90;;;;;;4922419;29;20059;-94
2022/06/07 12:18:11;;;;;;;7.70;1.90;;;15.40;99.90;;;;;;4891654;29;20054;-87
2022/06/07 12:20:38;;;;;;;6.90;1.90;;;15.60;99.90;;;;;;4907343;29;20167;-92
2022/06/07 12:23:23;;;;;;;9.85;2.67;;;15.60;99.90;;;;;;4920067;29;20486;-90
2022/06/07 12:26:04;;;;;;;6.57;1.80;;;15.60;99.90;;;;;;4888255;29;20052;-91
2022/06/07 12:28:32;;;;;;;5.07;1.98;;;15.50;99.90;;;;;;4941267;29;20397;-93
2022/06/07 12:30:58;;;;;;;6.07;2.20;;;15.30;99.90;;;;;;4910328;29;20047;-92
2022/06/07 12:33:28;;;;;;;6.40;1.92;;;15.20;99.90;;;;;;4894329;29;20055;-89
2022/06/07 12:36:34;;;;;;;7.60;2.85;;;15.30;99.90;;;;;;4903282;29;20527;-92
2022/06/07 12:39:03;;;;;;;10.50;2.40;;;16.40;99.90;;;;;;4897498;29;20110;-92
2022/06/07 12:41:32;;;;;;;7.65;2.17;;;14.70;99.90;;;;;;4895613;29;20074;-93
2022/06/07 12:44:02;;;;;;;7.10;1.98;;;14.60;99.90;;;;;;4914199;29;20068;-94
2022/06/07 12:46:43;;;;;;;7.10;2.10;;;14.50;99.90;;;;;;4914342;29;20040;-94
2022/06/07 12:49:28;;;;;;;7.75;2.20;;;14.00;99.90;;;;;;4928145;29;20054;-94
2022/06/07 12:52:02;;;;;;;8.55;2.22;;;14.90;99.90;;;;;;4903674;29;20051;-96
2022/06/07 12:54:28;;;;;;;8.23;2.80;;;14.60;99.90;;;;;;4901341;29;20040;-96
2022/06/07 12:56:56;;;;;;;6.63;2.40;;;14.80;99.90;;;;;;4904369;29;20039;-95
2022/06/07 12:59:35;;;;;;;8.02;2.33;;;15.00;99.90;;;;;;4900874;29;20060;-95
2022/06/07 13:02:02;;;;;;;9.60;2.58;;;14.90;99.90;;;;;;4915322;29;20039;-93
2022/06/07 13:04:54;;;;;;;6.03;2.10;;;15.40;99.90;;;;;;4886874;29;20051;-94
2022/06/07 13:07:23;;;;;;;8.30;2.30;;;15.20;99.90;;;;;;4929729;29;20062;-96
2022/06/07 13:09:53;;;;;;;7.90;2.70;;;15.40;99.90;;;;;;4897797;29;20503;-94
2022/06/07 13:12:36;;;;;;;7.43;2.33;;;15.40;99.90;;;;;;4883880;29;20126;-89
2022/06/07 13:15:05;;;;;;;9.43;3.25;;;15.70;99.90;;;;;;4889801;29;20111;-88
2022/06/07 13:18:02;;;;;;;;;;;;;;;;;;;;;
2022/06/07 13:20:56;;;;;;;7.88;2.10;;;16.30;99.90;;;;;;4905325;29;20063;-94
2022/06/07 13:23:32;;;;;;;8.77;2.13;;;16.60;99.90;;;;;;4878465;29;20048;-92
2022/06/07 13:26:36;;;;;;;6.70;2.08;;;16.50;99.90;;;;;;4917036;29;20048;-91
2022/06/07 13:29:32;;;;;;;7.63;2.00;;;16.10;99.90;;;;;;4929339;29;20055;-90
2022/06/07 13:32:03;;;;;;;7.35;2.20;;;16.10;99.90;;;;;;4895937;29;20075;-93